Accueil
METAR-TAF:

METAR-TAF

Aéroports :

Ingolstadt, Allemagne

latitude: 48-43N, longitude: 011-32E, altitude: 367 m

Observation

Le bulletin a été fait il y a 23 minutes, à 08:20 UTC
Vent 3 kt de ouest
Température 14°C
Humidité 47%
Pression 1024 hPa
Visibilité 10 km ou plus

METAR: ETSI 090820Z 28003KT 9999 14/03 Q1024 BLU+BLU+

Heure: 10:43 (08:43 UTC)

Prévision

Le bulletin a été fait il y a 1 heure et 32 minutes, à 07:11 UTC
Prévision valable du 09 à 08 UTC au 09 à 17 UTC
Vent 3 kt de direction variable
Visibilité 10 km ou plus
Quelques nuages à une hauteur de 8000 ft
Evoluant progressivement
du 09 à 08 UTC au 09 à 10 UTC
Vent 6 kt de ouest/nord-ouest
Visibilité 10 km ou plus
Quelques nuages à une hauteur de 8000 ft

TAF: ETSI 090711Z 0908/0917 VRB03KT 9999 NSW FEW080 BECMG 0908/0910 30006KT 9999 NSW FEW080

Observations et prévisions météorologiques de plus de 4000 aéroports (messages METAR et TAF).

Les stations disponibles sont représentées par des disques jaunes et rouges sur la carte.

Passer la souris dessus pour voir le nom de la station.

Cliquer dessus pour voir les observations et prévisions météorologiques.

Pour changer de carte: cliquez sur les boutons verts avec une croix noire pour zoomer, sur le bouton vert avec un tiret pour effectuer un zoom arrière, ou sur les flèches vertes pour les cartes adjacentes.


METAR-TAF: